sensor_id;sensor_type;location;lat;lon;timestamp;P1;durP1;ratioP1;P2;durP2;ratioP2
12625;SDS011;6378;42.684;23.372;2022-10-30T00:00:29;31.73;;;19.43;;
12625;SDS011;6378;42.684;23.372;2022-10-30T00:02:55;36.70;;;21.33;;
12625;SDS011;6378;42.684;23.372;2022-10-30T00:05:21;33.73;;;20.10;;
12625;SDS011;6378;42.684;23.372;2022-10-30T00:07:46;33.00;;;19.20;;
12625;SDS011;6378;42.684;23.372;2022-10-30T00:10:12;28.40;;;19.37;;
12625;SDS011;6378;42.684;23.372;2022-10-30T00:12:38;35.00;;;20.77;;
12625;SDS011;6378;42.684;23.372;2022-10-30T00:15:04;32.37;;;20.00;;
12625;SDS011;6378;42.684;23.372;2022-10-30T00:17:30;26.27;;;17.33;;
12625;SDS011;6378;42.684;23.372;2022-10-30T00:19:56;27.63;;;15.97;;
12625;SDS011;6378;42.684;23.372;2022-10-30T00:22:22;22.73;;;16.27;;
12625;SDS011;6378;42.684;23.372;2022-10-30T00:24:47;22.60;;;14.20;;
12625;SDS011;6378;42.684;23.372;2022-10-30T00:27:13;22.40;;;14.90;;
12625;SDS011;6378;42.684;23.372;2022-10-30T00:29:38;26.20;;;17.00;;
12625;SDS011;6378;42.684;23.372;2022-10-30T00:32:04;26.00;;;16.50;;
12625;SDS011;6378;42.684;23.372;2022-10-30T00:34:29;27.13;;;18.33;;
12625;SDS011;6378;42.684;23.372;2022-10-30T00:36:54;36.57;;;22.90;;
12625;SDS011;6378;42.684;23.372;2022-10-30T00:39:20;36.07;;;21.07;;
12625;SDS011;6378;42.684;23.372;2022-10-30T00:41:45;38.40;;;25.63;;
12625;SDS011;6378;42.684;23.372;2022-10-30T00:47:23;48.43;;;29.97;;
12625;SDS011;6378;42.684;23.372;2022-10-30T00:52:47;52.00;;;30.50;;
12625;SDS011;6378;42.684;23.372;2022-10-30T00:55:36;51.40;;;29.80;;
12625;SDS011;6378;42.684;23.372;2022-10-30T00:58:07;53.37;;;30.80;;
12625;SDS011;6378;42.684;23.372;2022-10-30T01:00:35;52.10;;;31.73;;
12625;SDS011;6378;42.684;23.372;2022-10-30T01:03:05;52.33;;;29.97;;
12625;SDS011;6378;42.684;23.372;2022-10-30T01:05:31;52.90;;;31.53;;
12625;SDS011;6378;42.684;23.372;2022-10-30T01:07:57;50.27;;;31.40;;
12625;SDS011;6378;42.684;23.372;2022-10-30T01:10:23;50.37;;;31.30;;
12625;SDS011;6378;42.684;23.372;2022-10-30T01:12:49;51.43;;;32.67;;
12625;SDS011;6378;42.684;23.372;2022-10-30T01:15:17;52.47;;;30.93;;
12625;SDS011;6378;42.684;23.372;2022-10-30T01:24:04;50.07;;;30.97;;
12625;SDS011;6378;42.684;23.372;2022-10-30T01:36:50;37.73;;;24.63;;
12625;SDS011;6378;42.684;23.372;2022-10-30T01:39:23;39.83;;;26.87;;
12625;SDS011;6378;42.684;23.372;2022-10-30T01:41:50;36.70;;;24.53;;
12625;SDS011;6378;42.684;23.372;2022-10-30T01:44:27;40.77;;;25.50;;
12625;SDS011;6378;42.684;23.372;2022-10-30T02:01:04;39.37;;;23.33;;
12625;SDS011;6378;42.684;23.372;2022-10-30T02:03:29;33.73;;;21.83;;
12625;SDS011;6378;42.684;23.372;2022-10-30T02:05:55;35.73;;;24.30;;
12625;SDS011;6378;42.684;23.372;2022-10-30T02:08:20;35.07;;;23.17;;
12625;SDS011;6378;42.684;23.372;2022-10-30T02:10:46;37.67;;;24.83;;
12625;SDS011;6378;42.684;23.372;2022-10-30T02:13:13;34.73;;;23.37;;
12625;SDS011;6378;42.684;23.372;2022-10-30T02:15:39;39.03;;;24.97;;
12625;SDS011;6378;42.684;23.372;2022-10-30T02:18:07;40.67;;;26.07;;
12625;SDS011;6378;42.684;23.372;2022-10-30T02:20:33;43.17;;;27.53;;
12625;SDS011;6378;42.684;23.372;2022-10-30T02:22:59;42.20;;;27.53;;
12625;SDS011;6378;42.684;23.372;2022-10-30T02:25:24;42.90;;;27.27;;
12625;SDS011;6378;42.684;23.372;2022-10-30T02:27:50;41.40;;;28.60;;
12625;SDS011;6378;42.684;23.372;2022-10-30T02:30:16;49.40;;;30.30;;
12625;SDS011;6378;42.684;23.372;2022-10-30T02:32:41;43.23;;;29.43;;
12625;SDS011;6378;42.684;23.372;2022-10-30T02:35:06;46.03;;;28.00;;
12625;SDS011;6378;42.684;23.372;2022-10-30T02:37:32;38.40;;;25.13;;
12625;SDS011;6378;42.684;23.372;2022-10-30T02:39:59;38.67;;;24.40;;
12625;SDS011;6378;42.684;23.372;2022-10-30T02:42:28;35.90;;;23.53;;
12625;SDS011;6378;42.684;23.372;2022-10-30T02:44:53;33.57;;;23.23;;
12625;SDS011;6378;42.684;23.372;2022-10-30T02:47:19;30.60;;;21.03;;
12625;SDS011;6378;42.684;23.372;2022-10-30T02:49:44;35.07;;;21.37;;
12625;SDS011;6378;42.684;23.372;2022-10-30T02:52:09;31.37;;;19.53;;
12625;SDS011;6378;42.684;23.372;2022-10-30T02:54:35;31.37;;;20.23;;
12625;SDS011;6378;42.684;23.372;2022-10-30T02:57:01;32.00;;;20.43;;
12625;SDS011;6378;42.684;23.372;2022-10-30T02:59:26;30.93;;;20.70;;
12625;SDS011;6378;42.684;23.372;2022-10-30T03:01:52;30.27;;;21.33;;
12625;SDS011;6378;42.684;23.372;2022-10-30T03:04:17;28.10;;;19.87;;
12625;SDS011;6378;42.684;23.372;2022-10-30T03:06:44;35.33;;;22.50;;
12625;SDS011;6378;42.684;23.372;2022-10-30T03:09:09;36.00;;;26.10;;
12625;SDS011;6378;42.684;23.372;2022-10-30T03:11:34;28.60;;;19.33;;
12625;SDS011;6378;42.684;23.372;2022-10-30T03:14:00;30.97;;;20.90;;
12625;SDS011;6378;42.684;23.372;2022-10-30T03:16:26;29.83;;;20.53;;
12625;SDS011;6378;42.684;23.372;2022-10-30T03:18:55;30.60;;;21.53;;
12625;SDS011;6378;42.684;23.372;2022-10-30T03:21:22;31.10;;;21.60;;
12625;SDS011;6378;42.684;23.372;2022-10-30T03:23:48;33.17;;;21.97;;
12625;SDS011;6378;42.684;23.372;2022-10-30T03:26:14;30.70;;;21.07;;
12625;SDS011;6378;42.684;23.372;2022-10-30T03:28:41;33.50;;;21.37;;
12625;SDS011;6378;42.684;23.372;2022-10-30T03:31:07;32.50;;;20.23;;
12625;SDS011;6378;42.684;23.372;2022-10-30T03:33:34;27.33;;;20.93;;
12625;SDS011;6378;42.684;23.372;2022-10-30T03:36:02;29.63;;;20.27;;
12625;SDS011;6378;42.684;23.372;2022-10-30T03:38:28;31.87;;;20.17;;
12625;SDS011;6378;42.684;23.372;2022-10-30T03:40:53;30.00;;;19.80;;
12625;SDS011;6378;42.684;23.372;2022-10-30T03:43:19;33.50;;;20.50;;
12625;SDS011;6378;42.684;23.372;2022-10-30T03:45:46;32.63;;;21.73;;
12625;SDS011;6378;42.684;23.372;2022-10-30T03:48:16;34.80;;;22.07;;
12625;SDS011;6378;42.684;23.372;2022-10-30T03:50:43;41.30;;;26.93;;
12625;SDS011;6378;42.684;23.372;2022-10-30T03:53:08;56.63;;;35.13;;
12625;SDS011;6378;42.684;23.372;2022-10-30T03:55:34;62.40;;;40.37;;
12625;SDS011;6378;42.684;23.372;2022-10-30T03:57:59;58.13;;;37.93;;
12625;SDS011;6378;42.684;23.372;2022-10-30T04:00:25;53.13;;;35.60;;
12625;SDS011;6378;42.684;23.372;2022-10-30T04:02:50;58.27;;;37.90;;
12625;SDS011;6378;42.684;23.372;2022-10-30T04:05:17;60.83;;;39.57;;
12625;SDS011;6378;42.684;23.372;2022-10-30T04:07:44;61.70;;;38.43;;
12625;SDS011;6378;42.684;23.372;2022-10-30T04:10:10;66.83;;;42.60;;
12625;SDS011;6378;42.684;23.372;2022-10-30T04:12:36;56.83;;;35.13;;
12625;SDS011;6378;42.684;23.372;2022-10-30T04:15:03;73.67;;;47.73;;
12625;SDS011;6378;42.684;23.372;2022-10-30T04:17:29;77.07;;;49.53;;
12625;SDS011;6378;42.684;23.372;2022-10-30T04:19:54;74.10;;;48.10;;
12625;SDS011;6378;42.684;23.372;2022-10-30T04:22:20;65.30;;;43.33;;
12625;SDS011;6378;42.684;23.372;2022-10-30T04:24:45;62.13;;;38.53;;
12625;SDS011;6378;42.684;23.372;2022-10-30T04:27:13;60.83;;;35.90;;
12625;SDS011;6378;42.684;23.372;2022-10-30T04:29:38;48.13;;;32.03;;
12625;SDS011;6378;42.684;23.372;2022-10-30T04:32:06;48.57;;;30.37;;
12625;SDS011;6378;42.684;23.372;2022-10-30T04:34:31;36.60;;;23.87;;
12625;SDS011;6378;42.684;23.372;2022-10-30T04:36:57;40.37;;;24.37;;
12625;SDS011;6378;42.684;23.372;2022-10-30T04:39:22;37.00;;;22.30;;
12625;SDS011;6378;42.684;23.372;2022-10-30T04:41:48;32.87;;;22.67;;
12625;SDS011;6378;42.684;23.372;2022-10-30T04:44:13;40.60;;;26.00;;
12625;SDS011;6378;42.684;23.372;2022-10-30T04:46:38;31.90;;;22.23;;
12625;SDS011;6378;42.684;23.372;2022-10-30T04:49:04;28.93;;;20.47;;
12625;SDS011;6378;42.684;23.372;2022-10-30T04:51:30;25.97;;;18.60;;
12625;SDS011;6378;42.684;23.372;2022-10-30T04:53:55;27.07;;;20.77;;
12625;SDS011;6378;42.684;23.372;2022-10-30T04:56:22;26.60;;;18.60;;
12625;SDS011;6378;42.684;23.372;2022-10-30T04:58:48;28.33;;;19.03;;
12625;SDS011;6378;42.684;23.372;2022-10-30T05:01:13;30.33;;;20.97;;
12625;SDS011;6378;42.684;23.372;2022-10-30T05:03:39;33.73;;;22.00;;
12625;SDS011;6378;42.684;23.372;2022-10-30T05:09:02;55.37;;;36.97;;
12625;SDS011;6378;42.684;23.372;2022-10-30T05:11:27;79.23;;;48.27;;
12625;SDS011;6378;42.684;23.372;2022-10-30T05:13:53;76.77;;;50.87;;
12625;SDS011;6378;42.684;23.372;2022-10-30T05:16:18;73.10;;;44.53;;
12625;SDS011;6378;42.684;23.372;2022-10-30T05:18:44;71.63;;;47.43;;
12625;SDS011;6378;42.684;23.372;2022-10-30T05:21:09;70.03;;;44.67;;
12625;SDS011;6378;42.684;23.372;2022-10-30T05:23:34;52.23;;;35.93;;
12625;SDS011;6378;42.684;23.372;2022-10-30T05:26:00;56.73;;;37.47;;
12625;SDS011;6378;42.684;23.372;2022-10-30T05:28:26;59.57;;;38.23;;
12625;SDS011;6378;42.684;23.372;2022-10-30T05:30:51;56.30;;;37.27;;
12625;SDS011;6378;42.684;23.372;2022-10-30T05:33:17;50.33;;;33.50;;
12625;SDS011;6378;42.684;23.372;2022-10-30T05:35:43;47.40;;;35.07;;
12625;SDS011;6378;42.684;23.372;2022-10-30T05:38:08;50.17;;;34.07;;
12625;SDS011;6378;42.684;23.372;2022-10-30T05:40:34;43.80;;;31.10;;
12625;SDS011;6378;42.684;23.372;2022-10-30T05:43:00;46.63;;;31.97;;
12625;SDS011;6378;42.684;23.372;2022-10-30T05:45:25;47.77;;;32.80;;
12625;SDS011;6378;42.684;23.372;2022-10-30T05:47:55;42.33;;;27.67;;
12625;SDS011;6378;42.684;23.372;2022-10-30T05:50:24;38.23;;;26.07;;
12625;SDS011;6378;42.684;23.372;2022-10-30T05:52:58;31.90;;;20.80;;
12625;SDS011;6378;42.684;23.372;2022-10-30T05:55:24;29.17;;;20.57;;
12625;SDS011;6378;42.684;23.372;2022-10-30T05:57:53;33.50;;;23.10;;
12625;SDS011;6378;42.684;23.372;2022-10-30T06:00:23;30.53;;;21.47;;
12625;SDS011;6378;42.684;23.372;2022-10-30T06:02:49;26.58;;;20.55;;
12625;SDS011;6378;42.684;23.372;2022-10-30T06:05:14;23.48;;;16.63;;
12625;SDS011;6378;42.684;23.372;2022-10-30T06:07:39;72.63;;;25.88;;
12625;SDS011;6378;42.684;23.372;2022-10-30T06:10:05;33.80;;;23.33;;
12625;SDS011;6378;42.684;23.372;2022-10-30T06:12:31;27.55;;;18.70;;
12625;SDS011;6378;42.684;23.372;2022-10-30T06:14:56;26.75;;;19.95;;
12625;SDS011;6378;42.684;23.372;2022-10-30T06:17:21;26.35;;;17.33;;
12625;SDS011;6378;42.684;23.372;2022-10-30T06:19:47;24.80;;;16.48;;
12625;SDS011;6378;42.684;23.372;2022-10-30T06:22:12;23.65;;;15.90;;
12625;SDS011;6378;42.684;23.372;2022-10-30T06:24:38;15.82;;;12.32;;
12625;SDS011;6378;42.684;23.372;2022-10-30T06:27:03;16.23;;;12.02;;
12625;SDS011;6378;42.684;23.372;2022-10-30T06:29:28;18.30;;;13.57;;
12625;SDS011;6378;42.684;23.372;2022-10-30T06:31:54;21.92;;;16.23;;
12625;SDS011;6378;42.684;23.372;2022-10-30T06:34:19;18.48;;;15.00;;
12625;SDS011;6378;42.684;23.372;2022-10-30T06:36:45;19.00;;;15.27;;
12625;SDS011;6378;42.684;23.372;2022-10-30T06:39:10;22.05;;;16.10;;
12625;SDS011;6378;42.684;23.372;2022-10-30T06:41:35;18.65;;;13.93;;
12625;SDS011;6378;42.684;23.372;2022-10-30T06:44:01;16.40;;;12.70;;
12625;SDS011;6378;42.684;23.372;2022-10-30T06:46:27;18.92;;;12.52;;
12625;SDS011;6378;42.684;23.372;2022-10-30T06:48:52;16.73;;;12.55;;
12625;SDS011;6378;42.684;23.372;2022-10-30T06:51:18;17.63;;;12.43;;
12625;SDS011;6378;42.684;23.372;2022-10-30T06:53:44;18.77;;;12.10;;
12625;SDS011;6378;42.684;23.372;2022-10-30T06:56:09;15.73;;;12.23;;
12625;SDS011;6378;42.684;23.372;2022-10-30T06:58:34;17.65;;;14.07;;
12625;SDS011;6378;42.684;23.372;2022-10-30T07:01:03;23.05;;;14.70;;
12625;SDS011;6378;42.684;23.372;2022-10-30T07:03:30;22.08;;;15.95;;
12625;SDS011;6378;42.684;23.372;2022-10-30T07:05:56;17.52;;;14.18;;
12625;SDS011;6378;42.684;23.372;2022-10-30T07:08:21;20.20;;;14.45;;
12625;SDS011;6378;42.684;23.372;2022-10-30T07:10:47;22.15;;;15.20;;
12625;SDS011;6378;42.684;23.372;2022-10-30T07:13:12;21.33;;;16.75;;
12625;SDS011;6378;42.684;23.372;2022-10-30T07:15:38;19.55;;;14.75;;
12625;SDS011;6378;42.684;23.372;2022-10-30T07:18:03;22.60;;;15.38;;
12625;SDS011;6378;42.684;23.372;2022-10-30T07:20:30;21.85;;;15.55;;
12625;SDS011;6378;42.684;23.372;2022-10-30T07:22:57;22.10;;;15.63;;
12625;SDS011;6378;42.684;23.372;2022-10-30T07:25:23;20.25;;;15.43;;
12625;SDS011;6378;42.684;23.372;2022-10-30T07:27:49;21.42;;;15.73;;
12625;SDS011;6378;42.684;23.372;2022-10-30T07:30:17;20.27;;;16.02;;
12625;SDS011;6378;42.684;23.372;2022-10-30T07:32:43;23.02;;;17.17;;
12625;SDS011;6378;42.684;23.372;2022-10-30T07:35:10;23.98;;;17.25;;
12625;SDS011;6378;42.684;23.372;2022-10-30T07:37:37;23.70;;;17.67;;
12625;SDS011;6378;42.684;23.372;2022-10-30T07:40:03;19.92;;;17.00;;
12625;SDS011;6378;42.684;23.372;2022-10-30T07:42:29;19.60;;;16.27;;
12625;SDS011;6378;42.684;23.372;2022-10-30T07:44:55;21.70;;;17.25;;
12625;SDS011;6378;42.684;23.372;2022-10-30T07:47:20;21.73;;;17.48;;
12625;SDS011;6378;42.684;23.372;2022-10-30T07:49:45;21.65;;;16.45;;
12625;SDS011;6378;42.684;23.372;2022-10-30T07:52:11;25.42;;;19.05;;
12625;SDS011;6378;42.684;23.372;2022-10-30T07:54:36;21.23;;;17.13;;
12625;SDS011;6378;42.684;23.372;2022-10-30T07:57:02;20.77;;;17.08;;
12625;SDS011;6378;42.684;23.372;2022-10-30T07:59:27;24.73;;;16.75;;
12625;SDS011;6378;42.684;23.372;2022-10-30T08:01:53;22.48;;;16.80;;
12625;SDS011;6378;42.684;23.372;2022-10-30T08:04:18;22.48;;;16.88;;
12625;SDS011;6378;42.684;23.372;2022-10-30T08:06:44;22.15;;;16.52;;
12625;SDS011;6378;42.684;23.372;2022-10-30T08:09:09;21.48;;;16.85;;
12625;SDS011;6378;42.684;23.372;2022-10-30T08:11:34;24.38;;;17.58;;
12625;SDS011;6378;42.684;23.372;2022-10-30T08:14:00;21.73;;;17.13;;
12625;SDS011;6378;42.684;23.372;2022-10-30T08:16:25;20.63;;;17.30;;
12625;SDS011;6378;42.684;23.372;2022-10-30T08:18:51;22.40;;;16.77;;
12625;SDS011;6378;42.684;23.372;2022-10-30T08:21:17;21.98;;;17.85;;
12625;SDS011;6378;42.684;23.372;2022-10-30T08:23:42;22.15;;;17.50;;
12625;SDS011;6378;42.684;23.372;2022-10-30T08:26:07;21.02;;;18.23;;
12625;SDS011;6378;42.684;23.372;2022-10-30T08:28:33;35.88;;;26.55;;
12625;SDS011;6378;42.684;23.372;2022-10-30T08:30:59;29.50;;;23.48;;
12625;SDS011;6378;42.684;23.372;2022-10-30T08:33:25;26.00;;;19.70;;
12625;SDS011;6378;42.684;23.372;2022-10-30T08:35:51;28.30;;;18.98;;
12625;SDS011;6378;42.684;23.372;2022-10-30T08:38:18;20.75;;;18.23;;
12625;SDS011;6378;42.684;23.372;2022-10-30T08:40:44;20.90;;;16.70;;
12625;SDS011;6378;42.684;23.372;2022-10-30T08:43:10;19.63;;;17.55;;
12625;SDS011;6378;42.684;23.372;2022-10-30T08:45:36;26.55;;;19.10;;
12625;SDS011;6378;42.684;23.372;2022-10-30T08:48:02;24.73;;;19.83;;
12625;SDS011;6378;42.684;23.372;2022-10-30T08:50:30;21.02;;;17.85;;
12625;SDS011;6378;42.684;23.372;2022-10-30T08:52:59;22.30;;;17.50;;
12625;SDS011;6378;42.684;23.372;2022-10-30T08:55:25;25.10;;;18.48;;
12625;SDS011;6378;42.684;23.372;2022-10-30T08:57:51;23.25;;;17.20;;
12625;SDS011;6378;42.684;23.372;2022-10-30T09:00:16;27.80;;;21.50;;
12625;SDS011;6378;42.684;23.372;2022-10-30T09:02:42;21.77;;;16.60;;
12625;SDS011;6378;42.684;23.372;2022-10-30T09:05:09;30.17;;;21.77;;
12625;SDS011;6378;42.684;23.372;2022-10-30T09:07:34;24.35;;;20.85;;
12625;SDS011;6378;42.684;23.372;2022-10-30T09:10:00;20.85;;;17.83;;
12625;SDS011;6378;42.684;23.372;2022-10-30T09:12:26;23.65;;;20.13;;
12625;SDS011;6378;42.684;23.372;2022-10-30T09:14:52;22.33;;;17.70;;
12625;SDS011;6378;42.684;23.372;2022-10-30T09:17:17;21.95;;;18.00;;
12625;SDS011;6378;42.684;23.372;2022-10-30T09:19:42;25.35;;;18.80;;
12625;SDS011;6378;42.684;23.372;2022-10-30T09:22:08;22.70;;;17.33;;
12625;SDS011;6378;42.684;23.372;2022-10-30T09:24:33;23.83;;;17.75;;
12625;SDS011;6378;42.684;23.372;2022-10-30T09:26:59;24.92;;;19.23;;
12625;SDS011;6378;42.684;23.372;2022-10-30T09:29:24;19.10;;;17.05;;
12625;SDS011;6378;42.684;23.372;2022-10-30T09:31:50;23.13;;;18.08;;
12625;SDS011;6378;42.684;23.372;2022-10-30T09:34:15;24.15;;;17.25;;
12625;SDS011;6378;42.684;23.372;2022-10-30T09:36:40;22.35;;;16.45;;
12625;SDS011;6378;42.684;23.372;2022-10-30T09:39:10;19.55;;;16.20;;
12625;SDS011;6378;42.684;23.372;2022-10-30T09:41:53;20.58;;;17.92;;
12625;SDS011;6378;42.684;23.372;2022-10-30T09:44:41;20.80;;;15.38;;
12625;SDS011;6378;42.684;23.372;2022-10-30T09:52:29;18.38;;;15.38;;
12625;SDS011;6378;42.684;23.372;2022-10-30T10:00:34;19.95;;;16.10;;
12625;SDS011;6378;42.684;23.372;2022-10-30T10:05:50;21.10;;;15.70;;
12625;SDS011;6378;42.684;23.372;2022-10-30T10:08:40;25.52;;;18.48;;
12625;SDS011;6378;42.684;23.372;2022-10-30T10:11:15;20.08;;;14.55;;
12625;SDS011;6378;42.684;23.372;2022-10-30T10:16:17;20.30;;;15.27;;
12625;SDS011;6378;42.684;23.372;2022-10-30T10:19:04;19.10;;;16.00;;
12625;SDS011;6378;42.684;23.372;2022-10-30T10:21:50;18.88;;;14.77;;
12625;SDS011;6378;42.684;23.372;2022-10-30T10:24:21;15.07;;;13.35;;
12625;SDS011;6378;42.684;23.372;2022-10-30T10:30:00;19.23;;;12.30;;
12625;SDS011;6378;42.684;23.372;2022-10-30T10:32:57;21.55;;;15.82;;
12625;SDS011;6378;42.684;23.372;2022-10-30T10:35:59;18.92;;;12.07;;
12625;SDS011;6378;42.684;23.372;2022-10-30T10:52:12;10.43;;;8.75;;
12625;SDS011;6378;42.684;23.372;2022-10-30T10:54:43;11.18;;;9.05;;
12625;SDS011;6378;42.684;23.372;2022-10-30T10:57:26;13.68;;;9.18;;
12625;SDS011;6378;42.684;23.372;2022-10-30T11:02:55;12.90;;;9.82;;
12625;SDS011;6378;42.684;23.372;2022-10-30T11:05:38;11.32;;;8.73;;
12625;SDS011;6378;42.684;23.372;2022-10-30T11:08:27;11.02;;;8.32;;
12625;SDS011;6378;42.684;23.372;2022-10-30T11:13:39;12.05;;;8.90;;
12625;SDS011;6378;42.684;23.372;2022-10-30T11:18:42;11.80;;;9.02;;
12625;SDS011;6378;42.684;23.372;2022-10-30T11:21:15;9.63;;;7.90;;
12625;SDS011;6378;42.684;23.372;2022-10-30T11:23:47;7.63;;;6.45;;
12625;SDS011;6378;42.684;23.372;2022-10-30T11:28:48;13.23;;;9.40;;
12625;SDS011;6378;42.684;23.372;2022-10-30T11:33:58;10.13;;;6.78;;
12625;SDS011;6378;42.684;23.372;2022-10-30T11:36:24;10.70;;;7.43;;
12625;SDS011;6378;42.684;23.372;2022-10-30T11:38:50;9.48;;;5.43;;
12625;SDS011;6378;42.684;23.372;2022-10-30T11:41:17;10.88;;;7.10;;
12625;SDS011;6378;42.684;23.372;2022-10-30T11:43:43;17.13;;;8.15;;
12625;SDS011;6378;42.684;23.372;2022-10-30T11:46:10;15.15;;;9.15;;
12625;SDS011;6378;42.684;23.372;2022-10-30T11:48:45;10.77;;;7.18;;
12625;SDS011;6378;42.684;23.372;2022-10-30T11:51:11;9.07;;;6.33;;
12625;SDS011;6378;42.684;23.372;2022-10-30T11:53:46;6.68;;;5.07;;
12625;SDS011;6378;42.684;23.372;2022-10-30T11:56:18;8.00;;;6.00;;
12625;SDS011;6378;42.684;23.372;2022-10-30T11:58:46;6.55;;;5.30;;
12625;SDS011;6378;42.684;23.372;2022-10-30T12:03:49;6.13;;;5.13;;
12625;SDS011;6378;42.684;23.372;2022-10-30T12:11:33;9.77;;;5.22;;
12625;SDS011;6378;42.684;23.372;2022-10-30T12:14:01;6.18;;;4.30;;
12625;SDS011;6378;42.684;23.372;2022-10-30T12:16:27;7.82;;;4.05;;
12625;SDS011;6378;42.684;23.372;2022-10-30T12:18:55;5.57;;;4.53;;
12625;SDS011;6378;42.684;23.372;2022-10-30T12:21:36;6.82;;;4.82;;
12625;SDS011;6378;42.684;23.372;2022-10-30T12:24:05;7.50;;;4.45;;
12625;SDS011;6378;42.684;23.372;2022-10-30T12:26:40;6.63;;;3.85;;
12625;SDS011;6378;42.684;23.372;2022-10-30T12:29:13;4.15;;;3.75;;
12625;SDS011;6378;42.684;23.372;2022-10-30T12:36:52;6.93;;;5.40;;
12625;SDS011;6378;42.684;23.372;2022-10-30T12:39:59;5.15;;;3.63;;
12625;SDS011;6378;42.684;23.372;2022-10-30T12:42:22;7.47;;;4.30;;
12625;SDS011;6378;42.684;23.372;2022-10-30T12:47:42;6.28;;;3.83;;
12625;SDS011;6378;42.684;23.372;2022-10-30T12:55:46;6.00;;;4.10;;
12625;SDS011;6378;42.684;23.372;2022-10-30T13:01:34;5.45;;;3.90;;
12625;SDS011;6378;42.684;23.372;2022-10-30T13:04:21;5.45;;;4.00;;
12625;SDS011;6378;42.684;23.372;2022-10-30T13:09:20;4.35;;;3.60;;
12625;SDS011;6378;42.684;23.372;2022-10-30T13:17:10;5.28;;;2.85;;
12625;SDS011;6378;42.684;23.372;2022-10-30T13:19:38;4.47;;;3.30;;
12625;SDS011;6378;42.684;23.372;2022-10-30T13:30:49;5.15;;;4.03;;
12625;SDS011;6378;42.684;23.372;2022-10-30T13:33:48;5.55;;;4.25;;
12625;SDS011;6378;42.684;23.372;2022-10-30T13:36:14;7.32;;;4.05;;
12625;SDS011;6378;42.684;23.372;2022-10-30T13:44:39;4.03;;;2.90;;
12625;SDS011;6378;42.684;23.372;2022-10-30T13:47:34;5.05;;;3.90;;
12625;SDS011;6378;42.684;23.372;2022-10-30T13:53:17;5.13;;;3.15;;
12625;SDS011;6378;42.684;23.372;2022-10-30T13:55:46;5.43;;;3.25;;
12625;SDS011;6378;42.684;23.372;2022-10-30T14:03:42;10.20;;;3.30;;
12625;SDS011;6378;42.684;23.372;2022-10-30T14:09:13;7.43;;;3.95;;
12625;SDS011;6378;42.684;23.372;2022-10-30T14:11:47;6.40;;;3.35;;
12625;SDS011;6378;42.684;23.372;2022-10-30T14:14:27;9.93;;;4.63;;
12625;SDS011;6378;42.684;23.372;2022-10-30T14:17:13;6.50;;;3.78;;
12625;SDS011;6378;42.684;23.372;2022-10-30T14:22:31;7.72;;;3.85;;
12625;SDS011;6378;42.684;23.372;2022-10-30T14:24:57;7.38;;;4.13;;
12625;SDS011;6378;42.684;23.372;2022-10-30T14:27:32;9.43;;;4.68;;
12625;SDS011;6378;42.684;23.372;2022-10-30T14:29:58;10.40;;;7.53;;
12625;SDS011;6378;42.684;23.372;2022-10-30T14:39:46;11.63;;;6.82;;
12625;SDS011;6378;42.684;23.372;2022-10-30T14:42:22;14.70;;;10.75;;
12625;SDS011;6378;42.684;23.372;2022-10-30T14:45:08;6.80;;;3.47;;
12625;SDS011;6378;42.684;23.372;2022-10-30T14:58:33;13.38;;;6.20;;
12625;SDS011;6378;42.684;23.372;2022-10-30T15:06:40;13.73;;;8.02;;
12625;SDS011;6378;42.684;23.372;2022-10-30T15:14:48;8.50;;;6.47;;
12625;SDS011;6378;42.684;23.372;2022-10-30T15:17:41;9.75;;;5.95;;
12625;SDS011;6378;42.684;23.372;2022-10-30T15:20:11;12.57;;;6.82;;
12625;SDS011;6378;42.684;23.372;2022-10-30T15:22:43;8.65;;;6.05;;
12625;SDS011;6378;42.684;23.372;2022-10-30T15:25:15;11.40;;;7.13;;
12625;SDS011;6378;42.684;23.372;2022-10-30T15:27:54;15.85;;;7.30;;
12625;SDS011;6378;42.684;23.372;2022-10-30T15:30:22;10.32;;;6.53;;
12625;SDS011;6378;42.684;23.372;2022-10-30T15:32:49;7.32;;;4.95;;
12625;SDS011;6378;42.684;23.372;2022-10-30T15:35:23;8.93;;;6.60;;
12625;SDS011;6378;42.684;23.372;2022-10-30T15:38:04;8.80;;;5.93;;
12625;SDS011;6378;42.684;23.372;2022-10-30T15:40:34;8.60;;;6.38;;
12625;SDS011;6378;42.684;23.372;2022-10-30T15:43:02;9.52;;;5.90;;
12625;SDS011;6378;42.684;23.372;2022-10-30T15:45:35;9.45;;;5.90;;
12625;SDS011;6378;42.684;23.372;2022-10-30T15:50:29;6.75;;;4.72;;
12625;SDS011;6378;42.684;23.372;2022-10-30T15:52:56;9.68;;;5.93;;
12625;SDS011;6378;42.684;23.372;2022-10-30T15:55:26;11.82;;;6.80;;
12625;SDS011;6378;42.684;23.372;2022-10-30T15:57:54;12.55;;;8.15;;
12625;SDS011;6378;42.684;23.372;2022-10-30T16:00:26;12.05;;;8.45;;
12625;SDS011;6378;42.684;23.372;2022-10-30T16:02:58;12.30;;;7.82;;
12625;SDS011;6378;42.684;23.372;2022-10-30T16:05:42;12.25;;;8.68;;
12625;SDS011;6378;42.684;23.372;2022-10-30T16:08:11;12.15;;;7.13;;
12625;SDS011;6378;42.684;23.372;2022-10-30T16:10:40;11.52;;;6.80;;
12625;SDS011;6378;42.684;23.372;2022-10-30T16:13:18;10.43;;;6.95;;
12625;SDS011;6378;42.684;23.372;2022-10-30T16:15:49;8.48;;;6.05;;
12625;SDS011;6378;42.684;23.372;2022-10-30T16:20:54;10.80;;;8.52;;
12625;SDS011;6378;42.684;23.372;2022-10-30T16:23:21;11.25;;;8.23;;
12625;SDS011;6378;42.684;23.372;2022-10-30T16:25:58;9.88;;;7.85;;
12625;SDS011;6378;42.684;23.372;2022-10-30T16:28:24;11.65;;;7.25;;
12625;SDS011;6378;42.684;23.372;2022-10-30T16:30:56;13.30;;;9.05;;
12625;SDS011;6378;42.684;23.372;2022-10-30T16:33:25;9.98;;;6.22;;
12625;SDS011;6378;42.684;23.372;2022-10-30T16:35:54;11.02;;;6.65;;
12625;SDS011;6378;42.684;23.372;2022-10-30T16:38:21;9.52;;;7.22;;
12625;SDS011;6378;42.684;23.372;2022-10-30T16:40:48;7.07;;;6.20;;
12625;SDS011;6378;42.684;23.372;2022-10-30T16:43:32;10.80;;;7.80;;
12625;SDS011;6378;42.684;23.372;2022-10-30T16:48:40;13.02;;;7.85;;
12625;SDS011;6378;42.684;23.372;2022-10-30T16:51:13;9.50;;;6.93;;
12625;SDS011;6378;42.684;23.372;2022-10-30T16:53:48;7.72;;;6.18;;
12625;SDS011;6378;42.684;23.372;2022-10-30T16:56:20;7.97;;;7.10;;
12625;SDS011;6378;42.684;23.372;2022-10-30T16:58:48;8.48;;;6.68;;
12625;SDS011;6378;42.684;23.372;2022-10-30T17:01:15;12.75;;;8.60;;
12625;SDS011;6378;42.684;23.372;2022-10-30T17:03:41;12.77;;;8.35;;
12625;SDS011;6378;42.684;23.372;2022-10-30T17:06:23;10.52;;;7.30;;
12625;SDS011;6378;42.684;23.372;2022-10-30T17:08:51;9.00;;;6.43;;
12625;SDS011;6378;42.684;23.372;2022-10-30T17:11:19;8.55;;;6.20;;
12625;SDS011;6378;42.684;23.372;2022-10-30T17:13:58;9.93;;;6.82;;
12625;SDS011;6378;42.684;23.372;2022-10-30T17:16:30;10.65;;;7.63;;
12625;SDS011;6378;42.684;23.372;2022-10-30T17:19:01;8.48;;;6.13;;
12625;SDS011;6378;42.684;23.372;2022-10-30T17:21:54;9.82;;;7.55;;
12625;SDS011;6378;42.684;23.372;2022-10-30T17:24:21;7.72;;;5.57;;
12625;SDS011;6378;42.684;23.372;2022-10-30T17:26:57;7.15;;;6.25;;
12625;SDS011;6378;42.684;23.372;2022-10-30T17:32:05;10.15;;;6.70;;
12625;SDS011;6378;42.684;23.372;2022-10-30T17:34:58;8.18;;;6.07;;
12625;SDS011;6378;42.684;23.372;2022-10-30T17:37:25;8.38;;;6.22;;
12625;SDS011;6378;42.684;23.372;2022-10-30T17:39:51;9.95;;;6.55;;
12625;SDS011;6378;42.684;23.372;2022-10-30T17:42:16;8.60;;;6.35;;
12625;SDS011;6378;42.684;23.372;2022-10-30T17:44:42;9.20;;;7.57;;